Artigas, Uruguay

3:54 PM UYT on September 01, 2014 (GMT -0300)
Rubem Berta International | Change Station
CLOSE
Current Station
Airport
Location: Uruguaiana Airport,
Elevation: 243 ft
Nearby Weather Stations

Elev 243 ft 29.78 °S, 57.04 °W | Updated -317 second ago

Clear
Clear
81 °F
Feels Like 80 °F
N
15
Wind Variable Wind from ENE

Today
High -- | Low -- °F
--% Chance of Precip.
Yesterday
High -- | Low -- °F
Precip. -- in
7:01 AM 6:30 PM
Waxing Crescent, 43% visible
Pressure 29.77 in
Visibility -9999.0 miles
Clouds
Heat Index 80 °F
Dew Point 54 °F
Humidity 39%
Rainfall 0.00 in
Snow Depth Not available.
UV Not available.
Pollen Not available.
Air Quality Not available.
Flu Activity Not available.
METAR SBUG 011900Z 07013KT CAVOK 27/12 Q1008

More Conditions Fewer Conditions

Pressure 29.77 in
Visibility -9999.0 miles
Clouds
Heat Index 80 °F
Dew Point 54 °F
Humidity 39%
Rainfall 0.00 in
Snow Depth Not available.
UV Not available.
Pollen Not available.
Air Quality Not available.
Flu Activity Not available.
METAR SBUG 011900Z 07013KT CAVOK 27/12 Q1008

More Conditions Fewer Conditions

10-Day Weather Forecast

Almanac

Astronomy

Sep. 01, 2014 Rise Set
Actual Time 7:01 AM UYT 6:30 PM UYT
Civil Twilight 6:37 AM UYT 6:54 PM UYT
Nautical Twilight 6:09 AM UYT 7:22 PM UYT
Astronomical Twilight 5:41 AM UYT 7:50 PM UYT
Moon 11:11 AM UYT 12:05 AM UYT
Length of Visible Light 12h 17m
Length of Day
11h 29m
Tomorrow will be 1m 45s longer.
Waxing Crescent, 43% of the Moon is Illuminated
Today
Waxing Crescent
Sep 2
First Quarter
Sep 8
Full
Sep 15
Last Quarter
Sep 24
New

Today's Extremes

Country Highs Country Lows

Community

WunderPhotos

Upload Photos

1,749,359 photos uploaded!

Nearby

Snow Depth

Not available.

Earthquake Activity

City Distance Mag. Time & Date
No recent earthquake activity has been reported nearby.
Minimum magnitude displayed is 2.5.

Coastal Water Temperatures

Place Temperature
No Stations Reporting

Nearby Weather Stations